Hlavní strana
METAR-TAF:

METAR-TAF

Letiště :

Dyersburg, Tennessee, Spojené státy americké

zeměpisná šířka: 36-00N, zeměpisná délka: 089-24W, výška: 103 m

Aktuální stav počasí

Zpráva byla vytvořena před 21 minutami, v 18:19 UTC
Severoseverovýchodní vítr 10 kt
Teplota 9°C
Vlhkost vzduchu 87%
Tlak 1020 hPa
Viditelnost: 16.1 km
Polojasno ve výšce 1200 ft
Zataženo ve výšce 3500 ft
slabý déšť

METAR: KDYR 181819Z AUTO 02010KT 10SM -RA SCT012 OVC035 09/07 A3013 RMK AO2 RAB17 PNO $

Čas: 12:40 (18:40 UTC)


TAF: chybějící

Stav a předpovědi počasí z více než 4 000 letišť (zprávy METAR a TAF).

Červené a žluté tečky na mapě představují dostupné meteorologické stanice.

Když kurzor umístíte na tečku, zobrazí se název stanice.

Pak kliknutím zobrazíte stav a předpověď počasí.

Chcete-li změnit mapu, kliknutím na zelené tlačítko se znaménkem +mapu přiblížíte, kliknutím na zelené tlačítko se znaménkem – mapu oddálíte a kliknutím na zelené šipky přejdete na sousední mapy.


METAR-TAF: